sensor_id;sensor_type;location;lat;lon;timestamp;P1;durP1;ratioP1;P2;durP2;ratioP2
48207;SDS011;33997;53.278;9.708;2023-10-09T00:00:32;5.15;;;1.15;;
48207;SDS011;33997;53.278;9.708;2023-10-09T00:03:16;2.90;;;1.00;;
48207;SDS011;33997;53.278;9.708;2023-10-09T00:05:42;2.00;;;0.90;;
48207;SDS011;33997;53.278;9.708;2023-10-09T00:08:16;4.82;;;1.30;;
48207;SDS011;33997;53.278;9.708;2023-10-09T00:10:46;1.38;;;0.90;;
48207;SDS011;33997;53.278;9.708;2023-10-09T00:13:18;1.40;;;0.82;;
48207;SDS011;33997;53.278;9.708;2023-10-09T00:15:55;3.03;;;0.90;;
48207;SDS011;33997;53.278;9.708;2023-10-09T00:18:26;2.97;;;0.95;;
48207;SDS011;33997;53.278;9.708;2023-10-09T00:20:57;4.30;;;1.00;;
48207;SDS011;33997;53.278;9.708;2023-10-09T00:23:35;5.70;;;1.33;;
48207;SDS011;33997;53.278;9.708;2023-10-09T00:26:01;1.92;;;0.88;;
48207;SDS011;33997;53.278;9.708;2023-10-09T00:28:33;5.20;;;0.98;;
48207;SDS011;33997;53.278;9.708;2023-10-09T00:31:00;2.60;;;1.15;;
48207;SDS011;33997;53.278;9.708;2023-10-09T00:35:57;3.25;;;1.00;;
48207;SDS011;33997;53.278;9.708;2023-10-09T00:38:34;3.80;;;1.23;;
48207;SDS011;33997;53.278;9.708;2023-10-09T00:41:00;5.00;;;1.40;;
48207;SDS011;33997;53.278;9.708;2023-10-09T00:43:31;3.20;;;1.05;;
48207;SDS011;33997;53.278;9.708;2023-10-09T00:46:00;2.75;;;1.08;;
48207;SDS011;33997;53.278;9.708;2023-10-09T00:48:36;3.20;;;1.10;;
48207;SDS011;33997;53.278;9.708;2023-10-09T00:51:05;4.68;;;1.40;;
48207;SDS011;33997;53.278;9.708;2023-10-09T00:53:41;5.72;;;1.33;;
48207;SDS011;33997;53.278;9.708;2023-10-09T00:56:08;4.43;;;1.20;;
48207;SDS011;33997;53.278;9.708;2023-10-09T00:58:45;2.75;;;1.27;;
48207;SDS011;33997;53.278;9.708;2023-10-09T01:01:13;3.97;;;1.05;;
48207;SDS011;33997;53.278;9.708;2023-10-09T01:03:41;6.03;;;1.20;;
48207;SDS011;33997;53.278;9.708;2023-10-09T01:06:07;7.82;;;1.63;;
48207;SDS011;33997;53.278;9.708;2023-10-09T01:08:35;3.85;;;1.50;;
48207;SDS011;33997;53.278;9.708;2023-10-09T01:11:07;6.50;;;1.30;;
48207;SDS011;33997;53.278;9.708;2023-10-09T01:13:43;5.20;;;1.60;;
48207;SDS011;33997;53.278;9.708;2023-10-09T01:16:19;4.82;;;1.38;;
48207;SDS011;33997;53.278;9.708;2023-10-09T01:18:48;4.63;;;1.50;;
48207;SDS011;33997;53.278;9.708;2023-10-09T01:21:15;6.20;;;1.42;;
48207;SDS011;33997;53.278;9.708;2023-10-09T01:23:42;7.35;;;1.55;;
48207;SDS011;33997;53.278;9.708;2023-10-09T01:26:31;6.30;;;1.80;;
48207;SDS011;33997;53.278;9.708;2023-10-09T01:29:11;7.47;;;1.50;;
48207;SDS011;33997;53.278;9.708;2023-10-09T01:37:10;4.88;;;1.50;;
48207;SDS011;33997;53.278;9.708;2023-10-09T01:39:43;4.30;;;1.40;;
48207;SDS011;33997;53.278;9.708;2023-10-09T01:42:23;5.13;;;1.33;;
48207;SDS011;33997;53.278;9.708;2023-10-09T01:44:53;3.47;;;1.35;;
48207;SDS011;33997;53.278;9.708;2023-10-09T01:47:18;4.45;;;1.60;;
48207;SDS011;33997;53.278;9.708;2023-10-09T01:49:46;4.60;;;1.73;;
48207;SDS011;33997;53.278;9.708;2023-10-09T01:52:14;6.78;;;1.85;;
48207;SDS011;33997;53.278;9.708;2023-10-09T01:54:41;7.82;;;1.95;;
48207;SDS011;33997;53.278;9.708;2023-10-09T01:57:12;7.00;;;1.83;;
48207;SDS011;33997;53.278;9.708;2023-10-09T01:59:38;5.18;;;1.58;;
48207;SDS011;33997;53.278;9.708;2023-10-09T02:02:08;7.78;;;1.40;;
48207;SDS011;33997;53.278;9.708;2023-10-09T02:05:03;2.65;;;1.33;;
48207;SDS011;33997;53.278;9.708;2023-10-09T02:07:39;5.40;;;1.88;;
48207;SDS011;33997;53.278;9.708;2023-10-09T02:10:18;4.55;;;1.67;;
48207;SDS011;33997;53.278;9.708;2023-10-09T02:12:50;3.75;;;1.42;;
48207;SDS011;33997;53.278;9.708;2023-10-09T02:15:22;5.80;;;1.65;;
48207;SDS011;33997;53.278;9.708;2023-10-09T02:18:07;5.05;;;1.70;;
48207;SDS011;33997;53.278;9.708;2023-10-09T02:20:44;7.07;;;1.58;;
48207;SDS011;33997;53.278;9.708;2023-10-09T02:23:19;5.53;;;1.25;;
48207;SDS011;33997;53.278;9.708;2023-10-09T02:25:50;6.30;;;1.80;;
48207;SDS011;33997;53.278;9.708;2023-10-09T02:28:18;7.68;;;1.90;;
48207;SDS011;33997;53.278;9.708;2023-10-09T02:30:44;7.05;;;1.70;;
48207;SDS011;33997;53.278;9.708;2023-10-09T02:33:16;8.63;;;1.90;;
48207;SDS011;33997;53.278;9.708;2023-10-09T02:35:55;5.82;;;1.63;;
48207;SDS011;33997;53.278;9.708;2023-10-09T02:38:24;5.65;;;1.63;;
48207;SDS011;33997;53.278;9.708;2023-10-09T02:40:51;4.65;;;1.50;;
48207;SDS011;33997;53.278;9.708;2023-10-09T02:43:29;8.10;;;1.80;;
48207;SDS011;33997;53.278;9.708;2023-10-09T02:46:10;7.05;;;1.63;;
48207;SDS011;33997;53.278;9.708;2023-10-09T02:48:42;4.43;;;1.35;;
48207;SDS011;33997;53.278;9.708;2023-10-09T02:51:11;3.85;;;1.30;;
48207;SDS011;33997;53.278;9.708;2023-10-09T02:53:59;9.25;;;1.75;;
48207;SDS011;33997;53.278;9.708;2023-10-09T02:56:32;5.50;;;1.60;;
48207;SDS011;33997;53.278;9.708;2023-10-09T02:59:06;5.10;;;1.48;;
48207;SDS011;33997;53.278;9.708;2023-10-09T03:01:32;4.85;;;1.65;;
48207;SDS011;33997;53.278;9.708;2023-10-09T03:03:59;7.20;;;1.40;;
48207;SDS011;33997;53.278;9.708;2023-10-09T03:06:40;3.33;;;1.40;;
48207;SDS011;33997;53.278;9.708;2023-10-09T03:09:14;5.35;;;1.77;;
48207;SDS011;33997;53.278;9.708;2023-10-09T03:11:47;5.88;;;1.88;;
48207;SDS011;33997;53.278;9.708;2023-10-09T03:14:18;6.28;;;1.80;;
48207;SDS011;33997;53.278;9.708;2023-10-09T03:16:51;5.28;;;2.05;;
48207;SDS011;33997;53.278;9.708;2023-10-09T03:19:25;6.47;;;1.70;;
48207;SDS011;33997;53.278;9.708;2023-10-09T03:21:52;3.97;;;1.95;;
48207;SDS011;33997;53.278;9.708;2023-10-09T03:24:17;5.30;;;1.80;;
48207;SDS011;33997;53.278;9.708;2023-10-09T03:26:44;5.07;;;1.70;;
48207;SDS011;33997;53.278;9.708;2023-10-09T03:29:10;5.60;;;1.70;;
48207;SDS011;33997;53.278;9.708;2023-10-09T03:31:36;3.58;;;1.63;;
48207;SDS011;33997;53.278;9.708;2023-10-09T03:34:02;5.38;;;1.63;;
48207;SDS011;33997;53.278;9.708;2023-10-09T03:36:29;3.47;;;1.60;;
48207;SDS011;33997;53.278;9.708;2023-10-09T03:38:56;5.72;;;1.70;;
48207;SDS011;33997;53.278;9.708;2023-10-09T03:41:23;5.88;;;1.88;;
48207;SDS011;33997;53.278;9.708;2023-10-09T03:43:51;5.10;;;1.67;;
48207;SDS011;33997;53.278;9.708;2023-10-09T03:46:17;4.40;;;1.98;;
48207;SDS011;33997;53.278;9.708;2023-10-09T03:48:49;3.38;;;1.77;;
48207;SDS011;33997;53.278;9.708;2023-10-09T03:51:17;6.22;;;1.67;;
48207;SDS011;33997;53.278;9.708;2023-10-09T03:53:50;3.22;;;1.45;;
48207;SDS011;33997;53.278;9.708;2023-10-09T03:56:17;8.70;;;1.80;;
48207;SDS011;33997;53.278;9.708;2023-10-09T03:58:44;4.47;;;1.50;;
48207;SDS011;33997;53.278;9.708;2023-10-09T04:01:11;5.38;;;1.50;;
48207;SDS011;33997;53.278;9.708;2023-10-09T04:03:53;12.68;;;1.88;;
48207;SDS011;33997;53.278;9.708;2023-10-09T04:06:25;4.70;;;1.80;;
48207;SDS011;33997;53.278;9.708;2023-10-09T04:08:55;5.55;;;1.85;;
48207;SDS011;33997;53.278;9.708;2023-10-09T04:11:23;3.10;;;1.63;;
48207;SDS011;33997;53.278;9.708;2023-10-09T04:13:49;4.68;;;1.83;;
48207;SDS011;33997;53.278;9.708;2023-10-09T04:16:17;5.90;;;2.15;;
48207;SDS011;33997;53.278;9.708;2023-10-09T04:18:58;10.27;;;1.80;;
48207;SDS011;33997;53.278;9.708;2023-10-09T04:21:33;6.15;;;1.90;;
48207;SDS011;33997;53.278;9.708;2023-10-09T04:26:37;8.00;;;1.90;;
48207;SDS011;33997;53.278;9.708;2023-10-09T04:29:10;4.35;;;2.20;;
48207;SDS011;33997;53.278;9.708;2023-10-09T04:31:43;6.22;;;2.00;;
48207;SDS011;33997;53.278;9.708;2023-10-09T04:34:16;8.45;;;2.67;;
48207;SDS011;33997;53.278;9.708;2023-10-09T04:37:02;7.43;;;2.22;;
48207;SDS011;33997;53.278;9.708;2023-10-09T04:39:43;5.57;;;2.10;;
48207;SDS011;33997;53.278;9.708;2023-10-09T04:42:12;5.80;;;2.17;;
48207;SDS011;33997;53.278;9.708;2023-10-09T04:45:01;6.15;;;2.70;;
48207;SDS011;33997;53.278;9.708;2023-10-09T04:47:30;7.78;;;2.80;;
48207;SDS011;33997;53.278;9.708;2023-10-09T04:50:14;4.53;;;2.53;;
48207;SDS011;33997;53.278;9.708;2023-10-09T04:53:01;6.03;;;3.53;;
48207;SDS011;33997;53.278;9.708;2023-10-09T04:55:47;8.55;;;3.70;;
48207;SDS011;33997;53.278;9.708;2023-10-09T04:58:23;6.93;;;3.38;;
48207;SDS011;33997;53.278;9.708;2023-10-09T05:00:51;6.78;;;3.95;;
48207;SDS011;33997;53.278;9.708;2023-10-09T05:03:23;7.55;;;3.65;;
48207;SDS011;33997;53.278;9.708;2023-10-09T05:06:08;9.88;;;3.70;;
48207;SDS011;33997;53.278;9.708;2023-10-09T05:08:47;10.95;;;3.42;;
48207;SDS011;33997;53.278;9.708;2023-10-09T05:11:13;7.55;;;3.70;;
48207;SDS011;33997;53.278;9.708;2023-10-09T05:13:52;7.65;;;3.55;;
48207;SDS011;33997;53.278;9.708;2023-10-09T05:16:36;7.05;;;3.42;;
48207;SDS011;33997;53.278;9.708;2023-10-09T05:19:02;8.52;;;3.55;;
48207;SDS011;33997;53.278;9.708;2023-10-09T05:21:32;8.35;;;4.10;;
48207;SDS011;33997;53.278;9.708;2023-10-09T05:24:10;10.35;;;3.80;;
48207;SDS011;33997;53.278;9.708;2023-10-09T05:26:39;7.68;;;4.13;;
48207;SDS011;33997;53.278;9.708;2023-10-09T05:29:11;7.53;;;4.38;;
48207;SDS011;33997;53.278;9.708;2023-10-09T05:34:38;8.00;;;4.35;;
48207;SDS011;33997;53.278;9.708;2023-10-09T05:37:23;7.90;;;3.92;;
48207;SDS011;33997;53.278;9.708;2023-10-09T05:39:50;9.10;;;4.20;;
48207;SDS011;33997;53.278;9.708;2023-10-09T05:42:32;7.70;;;4.43;;
48207;SDS011;33997;53.278;9.708;2023-10-09T05:45:05;8.18;;;4.78;;
48207;SDS011;33997;53.278;9.708;2023-10-09T05:47:51;8.40;;;4.80;;
48207;SDS011;33997;53.278;9.708;2023-10-09T05:50:31;11.88;;;5.13;;
48207;SDS011;33997;53.278;9.708;2023-10-09T05:53:01;8.77;;;5.30;;
48207;SDS011;33997;53.278;9.708;2023-10-09T05:55:27;11.82;;;5.97;;
48207;SDS011;33997;53.278;9.708;2023-10-09T05:58:13;7.93;;;4.82;;
48207;SDS011;33997;53.278;9.708;2023-10-09T06:00:44;9.02;;;5.72;;
48207;SDS011;33997;53.278;9.708;2023-10-09T06:03:29;11.57;;;5.70;;
48207;SDS011;33997;53.278;9.708;2023-10-09T06:06:13;10.73;;;6.00;;
48207;SDS011;33997;53.278;9.708;2023-10-09T06:08:58;13.13;;;6.18;;
48207;SDS011;33997;53.278;9.708;2023-10-09T06:11:48;9.35;;;5.22;;
48207;SDS011;33997;53.278;9.708;2023-10-09T06:14:24;11.88;;;6.18;;
48207;SDS011;33997;53.278;9.708;2023-10-09T06:19:21;12.20;;;5.68;;
48207;SDS011;33997;53.278;9.708;2023-10-09T06:21:47;9.85;;;6.00;;
48207;SDS011;33997;53.278;9.708;2023-10-09T06:24:32;16.95;;;6.72;;
48207;SDS011;33997;53.278;9.708;2023-10-09T06:27:07;8.38;;;5.78;;
48207;SDS011;33997;53.278;9.708;2023-10-09T06:29:36;10.98;;;6.43;;
48207;SDS011;33997;53.278;9.708;2023-10-09T06:32:15;11.73;;;6.55;;
48207;SDS011;33997;53.278;9.708;2023-10-09T06:34:59;9.82;;;6.15;;
48207;SDS011;33997;53.278;9.708;2023-10-09T06:37:48;11.68;;;5.53;;
48207;SDS011;33997;53.278;9.708;2023-10-09T06:40:30;9.20;;;5.95;;
48207;SDS011;33997;53.278;9.708;2023-10-09T06:43:04;11.63;;;5.22;;
48207;SDS011;33997;53.278;9.708;2023-10-09T06:45:42;8.90;;;5.97;;
48207;SDS011;33997;53.278;9.708;2023-10-09T06:48:11;9.32;;;5.57;;
48207;SDS011;33997;53.278;9.708;2023-10-09T06:50:57;8.25;;;5.03;;
48207;SDS011;33997;53.278;9.708;2023-10-09T06:53:37;10.05;;;5.10;;
48207;SDS011;33997;53.278;9.708;2023-10-09T06:56:19;12.05;;;5.18;;
48207;SDS011;33997;53.278;9.708;2023-10-09T06:59:08;9.93;;;5.88;;
48207;SDS011;33997;53.278;9.708;2023-10-09T07:01:47;13.35;;;5.03;;
48207;SDS011;33997;53.278;9.708;2023-10-09T07:04:36;9.43;;;5.38;;
48207;SDS011;33997;53.278;9.708;2023-10-09T07:07:02;13.32;;;5.90;;
48207;SDS011;33997;53.278;9.708;2023-10-09T07:09:32;10.40;;;5.13;;
48207;SDS011;33997;53.278;9.708;2023-10-09T07:12:07;9.27;;;5.47;;
48207;SDS011;33997;53.278;9.708;2023-10-09T07:14:51;9.30;;;5.68;;
48207;SDS011;33997;53.278;9.708;2023-10-09T07:17:26;10.70;;;5.75;;
48207;SDS011;33997;53.278;9.708;2023-10-09T07:20:09;10.80;;;5.57;;
48207;SDS011;33997;53.278;9.708;2023-10-09T07:22:35;9.48;;;6.00;;
48207;SDS011;33997;53.278;9.708;2023-10-09T07:25:04;11.48;;;5.30;;
48207;SDS011;33997;53.278;9.708;2023-10-09T07:27:41;11.43;;;5.88;;
48207;SDS011;33997;53.278;9.708;2023-10-09T07:30:13;9.60;;;5.63;;
48207;SDS011;33997;53.278;9.708;2023-10-09T07:32:59;8.48;;;5.40;;
48207;SDS011;33997;53.278;9.708;2023-10-09T07:35:31;9.32;;;6.10;;
48207;SDS011;33997;53.278;9.708;2023-10-09T07:40:53;7.85;;;5.07;;
48207;SDS011;33997;53.278;9.708;2023-10-09T07:43:31;9.70;;;5.55;;
48207;SDS011;33997;53.278;9.708;2023-10-09T07:46:04;10.70;;;5.90;;
48207;SDS011;33997;53.278;9.708;2023-10-09T07:48:31;9.48;;;5.80;;
48207;SDS011;33997;53.278;9.708;2023-10-09T07:51:16;10.93;;;5.55;;
48207;SDS011;33997;53.278;9.708;2023-10-09T07:53:44;9.73;;;6.25;;
48207;SDS011;33997;53.278;9.708;2023-10-09T07:56:13;8.20;;;5.35;;
48207;SDS011;33997;53.278;9.708;2023-10-09T07:58:45;8.70;;;5.43;;
48207;SDS011;33997;53.278;9.708;2023-10-09T08:01:12;9.50;;;5.85;;
48207;SDS011;33997;53.278;9.708;2023-10-09T08:03:47;10.32;;;6.22;;
48207;SDS011;33997;53.278;9.708;2023-10-09T08:06:23;10.63;;;6.05;;
48207;SDS011;33997;53.278;9.708;2023-10-09T08:09:08;11.13;;;5.70;;
48207;SDS011;33997;53.278;9.708;2023-10-09T08:11:37;11.07;;;5.47;;
48207;SDS011;33997;53.278;9.708;2023-10-09T08:14:08;9.75;;;5.53;;
48207;SDS011;33997;53.278;9.708;2023-10-09T08:16:54;8.68;;;5.07;;
48207;SDS011;33997;53.278;9.708;2023-10-09T08:19:38;8.25;;;5.00;;
48207;SDS011;33997;53.278;9.708;2023-10-09T08:22:27;7.82;;;4.70;;
48207;SDS011;33997;53.278;9.708;2023-10-09T08:24:53;9.82;;;5.00;;
48207;SDS011;33997;53.278;9.708;2023-10-09T08:27:25;6.75;;;4.50;;
48207;SDS011;33997;53.278;9.708;2023-10-09T08:30:00;8.13;;;4.70;;
48207;SDS011;33997;53.278;9.708;2023-10-09T08:32:51;8.93;;;4.10;;
48207;SDS011;33997;53.278;9.708;2023-10-09T08:35:30;7.82;;;4.30;;
48207;SDS011;33997;53.278;9.708;2023-10-09T08:38:11;6.60;;;3.85;;
48207;SDS011;33997;53.278;9.708;2023-10-09T08:40:37;5.78;;;3.30;;
48207;SDS011;33997;53.278;9.708;2023-10-09T08:43:14;6.72;;;3.55;;
48207;SDS011;33997;53.278;9.708;2023-10-09T08:45:44;5.15;;;3.20;;
48207;SDS011;33997;53.278;9.708;2023-10-09T08:48:11;4.82;;;3.20;;
48207;SDS011;33997;53.278;9.708;2023-10-09T08:50:40;5.72;;;3.20;;
48207;SDS011;33997;53.278;9.708;2023-10-09T08:53:07;6.03;;;3.70;;
48207;SDS011;33997;53.278;9.708;2023-10-09T08:55:35;6.00;;;3.30;;
48207;SDS011;33997;53.278;9.708;2023-10-09T08:58:03;5.07;;;2.85;;
48207;SDS011;33997;53.278;9.708;2023-10-09T09:00:35;6.95;;;3.05;;
48207;SDS011;33997;53.278;9.708;2023-10-09T09:03:04;6.45;;;3.85;;
48207;SDS011;33997;53.278;9.708;2023-10-09T09:05:31;5.70;;;2.92;;
48207;SDS011;33997;53.278;9.708;2023-10-09T09:08:00;5.07;;;3.03;;
48207;SDS011;33997;53.278;9.708;2023-10-09T09:10:30;5.95;;;3.25;;
48207;SDS011;33997;53.278;9.708;2023-10-09T09:13:14;4.97;;;2.75;;
48207;SDS011;33997;53.278;9.708;2023-10-09T09:15:46;6.50;;;3.50;;
48207;SDS011;33997;53.278;9.708;2023-10-09T09:18:12;5.97;;;3.40;;
48207;SDS011;33997;53.278;9.708;2023-10-09T09:20:42;10.10;;;3.80;;
48207;SDS011;33997;53.278;9.708;2023-10-09T09:23:11;7.88;;;4.00;;
48207;SDS011;33997;53.278;9.708;2023-10-09T09:25:44;9.38;;;4.15;;
48207;SDS011;33997;53.278;9.708;2023-10-09T09:28:12;6.75;;;3.92;;
48207;SDS011;33997;53.278;9.708;2023-10-09T09:30:44;6.90;;;3.70;;
48207;SDS011;33997;53.278;9.708;2023-10-09T09:36:06;8.02;;;4.32;;
48207;SDS011;33997;53.278;9.708;2023-10-09T09:38:32;9.52;;;4.60;;
48207;SDS011;33997;53.278;9.708;2023-10-09T09:41:14;7.18;;;4.50;;
48207;SDS011;33997;53.278;9.708;2023-10-09T09:43:51;9.35;;;5.10;;
48207;SDS011;33997;53.278;9.708;2023-10-09T09:46:22;8.15;;;5.03;;
48207;SDS011;33997;53.278;9.708;2023-10-09T09:49:02;10.73;;;5.25;;
48207;SDS011;33997;53.278;9.708;2023-10-09T09:51:30;11.20;;;5.07;;
48207;SDS011;33997;53.278;9.708;2023-10-09T09:53:56;11.98;;;6.68;;
48207;SDS011;33997;53.278;9.708;2023-10-09T09:56:24;11.07;;;5.85;;
48207;SDS011;33997;53.278;9.708;2023-10-09T09:58:50;10.05;;;5.97;;
48207;SDS011;33997;53.278;9.708;2023-10-09T10:01:20;11.40;;;6.70;;
48207;SDS011;33997;53.278;9.708;2023-10-09T10:03:53;11.43;;;5.65;;
48207;SDS011;33997;53.278;9.708;2023-10-09T10:06:23;12.25;;;6.00;;
48207;SDS011;33997;53.278;9.708;2023-10-09T10:08:53;12.15;;;6.13;;
48207;SDS011;33997;53.278;9.708;2023-10-09T10:14:07;14.65;;;6.57;;
48207;SDS011;33997;53.278;9.708;2023-10-09T10:17:19;15.82;;;6.60;;
48207;SDS011;33997;53.278;9.708;2023-10-09T10:22:29;13.18;;;7.03;;
48207;SDS011;33997;53.278;9.708;2023-10-09T10:24:57;15.80;;;7.45;;
48207;SDS011;33997;53.278;9.708;2023-10-09T10:27:27;19.67;;;8.88;;
48207;SDS011;33997;53.278;9.708;2023-10-09T10:35:16;20.65;;;9.07;;
48207;SDS011;33997;53.278;9.708;2023-10-09T10:37:45;16.55;;;9.30;;
48207;SDS011;33997;53.278;9.708;2023-10-09T10:40:25;15.52;;;9.23;;
48207;SDS011;33997;53.278;9.708;2023-10-09T10:43:05;18.52;;;10.98;;
48207;SDS011;33997;53.278;9.708;2023-10-09T10:45:35;19.63;;;10.45;;
48207;SDS011;33997;53.278;9.708;2023-10-09T10:48:03;22.55;;;11.07;;
48207;SDS011;33997;53.278;9.708;2023-10-09T10:53:12;20.70;;;10.73;;
48207;SDS011;33997;53.278;9.708;2023-10-09T10:55:39;22.88;;;11.43;;
48207;SDS011;33997;53.278;9.708;2023-10-09T10:58:21;26.98;;;12.50;;
48207;SDS011;33997;53.278;9.708;2023-10-09T11:00:55;25.35;;;12.50;;
48207;SDS011;33997;53.278;9.708;2023-10-09T11:03:21;25.88;;;13.55;;
48207;SDS011;33997;53.278;9.708;2023-10-09T11:06:01;30.38;;;15.18;;
48207;SDS011;33997;53.278;9.708;2023-10-09T11:08:49;29.60;;;14.55;;
48207;SDS011;33997;53.278;9.708;2023-10-09T11:11:22;30.05;;;15.10;;
48207;SDS011;33997;53.278;9.708;2023-10-09T11:13:48;35.70;;;15.88;;
48207;SDS011;33997;53.278;9.708;2023-10-09T11:16:22;29.88;;;14.70;;
48207;SDS011;33997;53.278;9.708;2023-10-09T11:19:13;30.80;;;15.30;;
48207;SDS011;33997;53.278;9.708;2023-10-09T11:21:56;29.20;;;14.10;;
48207;SDS011;33997;53.278;9.708;2023-10-09T11:24:49;30.38;;;14.82;;
48207;SDS011;33997;53.278;9.708;2023-10-09T11:27:36;33.05;;;13.48;;
48207;SDS011;33997;53.278;9.708;2023-10-09T11:30:05;26.92;;;14.43;;
48207;SDS011;33997;53.278;9.708;2023-10-09T11:32:46;28.42;;;14.57;;
48207;SDS011;33997;53.278;9.708;2023-10-09T11:35:14;30.40;;;14.15;;
48207;SDS011;33997;53.278;9.708;2023-10-09T11:37:59;23.52;;;13.10;;
48207;SDS011;33997;53.278;9.708;2023-10-09T11:40:28;33.78;;;13.70;;
48207;SDS011;33997;53.278;9.708;2023-10-09T11:42:59;29.23;;;12.95;;
48207;SDS011;33997;53.278;9.708;2023-10-09T11:45:26;24.13;;;12.25;;
48207;SDS011;33997;53.278;9.708;2023-10-09T11:48:15;26.75;;;11.60;;
48207;SDS011;33997;53.278;9.708;2023-10-09T11:50:58;25.20;;;11.48;;
48207;SDS011;33997;53.278;9.708;2023-10-09T11:53:27;22.13;;;11.55;;
48207;SDS011;33997;53.278;9.708;2023-10-09T11:55:52;22.25;;;10.77;;
48207;SDS011;33997;53.278;9.708;2023-10-09T11:58:18;18.35;;;10.00;;
48207;SDS011;33997;53.278;9.708;2023-10-09T12:00:49;24.95;;;9.88;;
48207;SDS011;33997;53.278;9.708;2023-10-09T12:03:16;18.67;;;9.27;;
48207;SDS011;33997;53.278;9.708;2023-10-09T12:05:42;23.58;;;9.73;;
48207;SDS011;33997;53.278;9.708;2023-10-09T12:08:09;16.48;;;9.35;;
48207;SDS011;33997;53.278;9.708;2023-10-09T12:10:36;18.15;;;8.43;;
48207;SDS011;33997;53.278;9.708;2023-10-09T12:13:03;19.67;;;8.07;;
48207;SDS011;33997;53.278;9.708;2023-10-09T12:15:31;16.50;;;8.48;;
48207;SDS011;33997;53.278;9.708;2023-10-09T12:18:06;14.43;;;7.60;;
48207;SDS011;33997;53.278;9.708;2023-10-09T12:20:39;16.60;;;8.07;;
48207;SDS011;33997;53.278;9.708;2023-10-09T12:23:06;17.02;;;7.72;;
48207;SDS011;33997;53.278;9.708;2023-10-09T12:25:32;16.40;;;8.23;;
48207;SDS011;33997;53.278;9.708;2023-10-09T12:28:00;15.52;;;7.18;;
48207;SDS011;33997;53.278;9.708;2023-10-09T12:30:28;15.10;;;6.82;;
48207;SDS011;33997;53.278;9.708;2023-10-09T12:32:54;12.48;;;6.65;;
48207;SDS011;33997;53.278;9.708;2023-10-09T12:35:22;12.70;;;6.75;;
48207;SDS011;33997;53.278;9.708;2023-10-09T12:37:49;13.02;;;6.90;;
48207;SDS011;33997;53.278;9.708;2023-10-09T12:40:21;12.10;;;5.72;;
48207;SDS011;33997;53.278;9.708;2023-10-09T12:42:54;9.68;;;5.35;;
48207;SDS011;33997;53.278;9.708;2023-10-09T12:45:20;9.52;;;5.03;;
48207;SDS011;33997;53.278;9.708;2023-10-09T12:47:57;11.82;;;5.40;;
48207;SDS011;33997;53.278;9.708;2023-10-09T12:52:58;11.70;;;5.27;;
48207;SDS011;33997;53.278;9.708;2023-10-09T12:55:27;11.52;;;4.63;;
48207;SDS011;33997;53.278;9.708;2023-10-09T12:58:00;10.05;;;4.43;;
48207;SDS011;33997;53.278;9.708;2023-10-09T13:00:33;10.02;;;4.78;;
48207;SDS011;33997;53.278;9.708;2023-10-09T13:03:02;9.80;;;5.15;;
48207;SDS011;33997;53.278;9.708;2023-10-09T13:05:38;9.77;;;4.70;;
48207;SDS011;33997;53.278;9.708;2023-10-09T13:08:16;11.07;;;4.72;;
48207;SDS011;33997;53.278;9.708;2023-10-09T13:10:47;10.00;;;4.35;;
48207;SDS011;33997;53.278;9.708;2023-10-09T13:13:20;8.80;;;4.47;;
48207;SDS011;33997;53.278;9.708;2023-10-09T13:15:46;8.38;;;4.47;;
48207;SDS011;33997;53.278;9.708;2023-10-09T13:18:11;9.75;;;4.50;;
48207;SDS011;33997;53.278;9.708;2023-10-09T13:20:37;9.02;;;3.70;;
48207;SDS011;33997;53.278;9.708;2023-10-09T13:23:03;10.15;;;3.97;;
48207;SDS011;33997;53.278;9.708;2023-10-09T13:25:28;8.10;;;3.70;;
48207;SDS011;33997;53.278;9.708;2023-10-09T13:28:04;8.77;;;3.70;;
48207;SDS011;33997;53.278;9.708;2023-10-09T13:30:30;9.93;;;3.42;;
48207;SDS011;33997;53.278;9.708;2023-10-09T13:33:03;10.32;;;4.20;;
48207;SDS011;33997;53.278;9.708;2023-10-09T13:35:30;8.88;;;3.78;;
48207;SDS011;33997;53.278;9.708;2023-10-09T13:38:02;10.68;;;4.25;;
48207;SDS011;33997;53.278;9.708;2023-10-09T13:40:33;10.90;;;3.33;;
48207;SDS011;33997;53.278;9.708;2023-10-09T13:43:00;9.95;;;3.65;;
48207;SDS011;33997;53.278;9.708;2023-10-09T13:45:26;7.85;;;3.30;;
48207;SDS011;33997;53.278;9.708;2023-10-09T13:47:53;6.82;;;3.05;;
48207;SDS011;33997;53.278;9.708;2023-10-09T13:50:19;8.45;;;2.80;;
48207;SDS011;33997;53.278;9.708;2023-10-09T13:52:47;5.15;;;2.47;;
48207;SDS011;33997;53.278;9.708;2023-10-09T13:55:13;7.13;;;2.78;;
48207;SDS011;33997;53.278;9.708;2023-10-09T13:57:42;8.27;;;2.70;;
48207;SDS011;33997;53.278;9.708;2023-10-09T14:00:10;6.25;;;2.92;;
48207;SDS011;33997;53.278;9.708;2023-10-09T14:02:57;6.63;;;2.20;;
48207;SDS011;33997;53.278;9.708;2023-10-09T14:05:26;9.50;;;2.78;;
48207;SDS011;33997;53.278;9.708;2023-10-09T14:07:54;7.68;;;2.42;;
48207;SDS011;33997;53.278;9.708;2023-10-09T14:10:22;7.63;;;2.83;;
48207;SDS011;33997;53.278;9.708;2023-10-09T14:12:51;7.72;;;1.80;;
48207;SDS011;33997;53.278;9.708;2023-10-09T14:15:19;4.75;;;1.95;;
48207;SDS011;33997;53.278;9.708;2023-10-09T14:17:44;3.20;;;1.70;;
48207;SDS011;33997;53.278;9.708;2023-10-09T14:20:11;4.88;;;1.98;;
48207;SDS011;33997;53.278;9.708;2023-10-09T14:22:56;5.70;;;2.08;;
48207;SDS011;33997;53.278;9.708;2023-10-09T14:25:32;7.43;;;2.22;;
48207;SDS011;33997;53.278;9.708;2023-10-09T14:27:58;7.25;;;2.65;;
48207;SDS011;33997;53.278;9.708;2023-10-09T14:30:24;8.40;;;2.72;;
48207;SDS011;33997;53.278;9.708;2023-10-09T14:32:57;6.10;;;2.30;;
48207;SDS011;33997;53.278;9.708;2023-10-09T14:35:23;7.00;;;1.92;;
48207;SDS011;33997;53.278;9.708;2023-10-09T14:37:55;5.90;;;1.63;;
48207;SDS011;33997;53.278;9.708;2023-10-09T14:40:21;7.45;;;2.00;;
48207;SDS011;33997;53.278;9.708;2023-10-09T14:42:54;4.55;;;1.90;;
48207;SDS011;33997;53.278;9.708;2023-10-09T14:45:22;6.15;;;1.77;;
48207;SDS011;33997;53.278;9.708;2023-10-09T14:47:52;3.33;;;1.50;;
48207;SDS011;33997;53.278;9.708;2023-10-09T14:50:18;3.60;;;1.23;;
48207;SDS011;33997;53.278;9.708;2023-10-09T14:52:47;3.72;;;1.20;;
48207;SDS011;33997;53.278;9.708;2023-10-09T14:55:13;5.15;;;1.52;;
48207;SDS011;33997;53.278;9.708;2023-10-09T14:57:45;2.45;;;1.13;;
48207;SDS011;33997;53.278;9.708;2023-10-09T15:00:10;4.85;;;0.95;;
48207;SDS011;33997;53.278;9.708;2023-10-09T15:02:39;3.25;;;1.10;;
48207;SDS011;33997;53.278;9.708;2023-10-09T15:05:05;4.15;;;1.05;;
48207;SDS011;33997;53.278;9.708;2023-10-09T15:07:35;6.22;;;1.40;;
48207;SDS011;33997;53.278;9.708;2023-10-09T15:10:04;2.13;;;1.00;;
48207;SDS011;33997;53.278;9.708;2023-10-09T15:12:30;5.13;;;1.05;;
48207;SDS011;33997;53.278;9.708;2023-10-09T15:14:55;3.72;;;1.10;;
48207;SDS011;33997;53.278;9.708;2023-10-09T15:17:22;2.17;;;0.98;;
48207;SDS011;33997;53.278;9.708;2023-10-09T15:19:49;3.17;;;1.17;;
48207;SDS011;33997;53.278;9.708;2023-10-09T15:22:20;4.15;;;1.40;;
48207;SDS011;33997;53.278;9.708;2023-10-09T15:24:46;3.08;;;1.13;;
48207;SDS011;33997;53.278;9.708;2023-10-09T15:27:11;2.78;;;1.25;;
48207;SDS011;33997;53.278;9.708;2023-10-09T15:29:38;3.47;;;0.93;;
48207;SDS011;33997;53.278;9.708;2023-10-09T15:32:08;3.63;;;0.80;;
48207;SDS011;33997;53.278;9.708;2023-10-09T15:34:40;2.08;;;0.47;;
48207;SDS011;33997;53.278;9.708;2023-10-09T15:37:06;0.75;;;0.50;;
48207;SDS011;33997;53.278;9.708;2023-10-09T15:39:37;2.38;;;0.63;;
48207;SDS011;33997;53.278;9.708;2023-10-09T15:42:03;3.20;;;0.90;;
48207;SDS011;33997;53.278;9.708;2023-10-09T15:44:38;2.15;;;0.60;;
48207;SDS011;33997;53.278;9.708;2023-10-09T15:47:04;1.33;;;0.50;;
48207;SDS011;33997;53.278;9.708;2023-10-09T15:49:33;1.42;;;0.70;;
48207;SDS011;33997;53.278;9.708;2023-10-09T15:51:59;3.58;;;0.57;;